Nearby METAR Reports

 

KOJC - Olathe, Kansas, USA
Distance from station: E 3mi, 5km
Updated: Sat, 13-Apr-2024 1:53am CDT
Clear
Clear
 Wind from S
Wind: S 5 mph , 7 km/h
Temperature: 54°F , 12°C
Dew Point: 34°F , 1°C
Humidity: 47%
Barometer: 30.11 inHg , 1019.6 hPa
Clouds: Clear
Visibility: 10 miles , 16 km
2024/04/13 06:53 KOJC 130653Z AUTO 17004KT 10SM CLR 12/01 A3011 RMK AO2 SLP194 T01170006
KIXD - Olathe, Kansas, USA
Distance from station: E 8mi, 13km
Updated: Sat, 13-Apr-2024 1:53am CDT
Clear
Clear
 Wind from SSE
Wind: SSE 7 mph , 11 km/h
Temperature: 54°F , 12°C
Dew Point: 34°F , 1°C
Humidity: 47%
Barometer: 30.12 inHg , 1020 hPa
Clouds: Clear
Visibility: 10 miles , 16 km
2024/04/13 06:53 KIXD 130653Z 15006KT 10SM CLR 12/01 A3012 RMK AO2 SLP194 T01170006